createdAt,value
2018-04-24T00:01:01.350Z,6.90
2018-04-24T00:03:28.923Z,7.80
2018-04-24T00:05:57.915Z,7.40
2018-04-24T00:08:25.385Z,6.90
2018-04-24T00:10:52.869Z,7.75
2018-04-24T00:13:20.528Z,7.60
2018-04-24T00:15:48.001Z,7.72
2018-04-24T00:18:15.606Z,7.35
2018-04-24T00:20:43.003Z,8.23
2018-04-24T00:23:10.476Z,8.32
2018-04-24T00:25:37.956Z,8.00
2018-04-24T00:28:05.424Z,8.00
2018-04-24T00:30:32.914Z,7.43
2018-04-24T00:33:00.384Z,8.68
2018-04-24T00:35:27.958Z,8.30
2018-04-24T00:37:55.422Z,8.02
2018-04-24T00:40:22.895Z,9.20
2018-04-24T00:42:50.379Z,9.07
2018-04-24T00:45:17.833Z,8.73
2018-04-24T00:47:45.320Z,9.23
2018-04-24T00:50:12.889Z,10.15
2018-04-24T00:52:40.455Z,9.15
2018-04-24T00:55:07.910Z,8.93
2018-04-24T00:57:35.408Z,9.13
2018-04-24T01:00:02.862Z,9.70
2018-04-24T01:02:30.338Z,8.00
2018-04-24T01:04:57.809Z,8.75
2018-04-24T01:07:25.266Z,9.00
2018-04-24T01:09:52.731Z,9.10
2018-04-24T01:12:20.200Z,9.52
2018-04-24T01:14:47.785Z,8.63
2018-04-24T01:17:15.246Z,8.50
2018-04-24T01:19:42.733Z,8.85
2018-04-24T01:22:10.257Z,8.40
2018-04-24T01:24:37.713Z,9.45
2018-04-24T01:27:05.173Z,8.75
2018-04-24T01:29:33.403Z,9.07
2018-04-24T01:32:00.864Z,9.90
2018-04-24T01:34:28.351Z,9.30
2018-04-24T01:36:55.813Z,9.98
2018-04-24T01:39:23.276Z,9.90
2018-04-24T01:41:50.749Z,10.00
2018-04-24T01:44:18.224Z,10.93
2018-04-24T01:46:45.676Z,10.60
2018-04-24T01:49:13.172Z,10.43
2018-04-24T01:51:40.659Z,10.65
2018-04-24T01:54:08.146Z,11.02
2018-04-24T01:56:36.375Z,11.02
2018-04-24T01:59:03.859Z,11.18
2018-04-24T02:01:31.356Z,11.50
2018-04-24T02:03:58.828Z,11.63
2018-04-24T02:06:26.301Z,11.00
2018-04-24T02:08:53.901Z,11.30
2018-04-24T02:11:22.149Z,11.73
2018-04-24T02:13:49.617Z,11.03
2018-04-24T02:16:17.119Z,10.80
2018-04-24T02:18:45.373Z,10.63
2018-04-24T02:21:13.620Z,10.10
2018-04-24T02:23:41.091Z,9.60
2018-04-24T02:26:08.593Z,8.83
2018-04-24T02:28:36.063Z,7.97
2018-04-24T02:31:03.540Z,8.90
2018-04-24T02:33:31.011Z,8.00
2018-04-24T02:35:59.433Z,8.20
2018-04-24T02:38:27.682Z,7.72
2018-04-24T02:40:55.169Z,7.95
2018-04-24T02:43:22.651Z,6.82
2018-04-24T02:45:50.145Z,7.00
2018-04-24T02:48:18.381Z,6.40
2018-04-24T02:50:45.831Z,6.28
2018-04-24T02:53:13.290Z,6.37
2018-04-24T02:55:40.756Z,5.72
2018-04-24T02:58:08.218Z,6.00
2018-04-24T03:00:35.729Z,5.78
2018-04-24T03:03:03.182Z,6.37
2018-04-24T03:05:30.665Z,5.75
2018-04-24T03:07:58.145Z,6.05
2018-04-24T03:10:26.439Z,5.33
2018-04-24T03:12:54.616Z,5.30
2018-04-24T03:15:22.086Z,5.53
2018-04-24T03:17:50.488Z,5.80
2018-04-24T03:20:17.964Z,5.78
2018-04-24T03:22:45.413Z,5.47
2018-04-24T03:25:12.881Z,5.60
2018-04-24T03:27:40.338Z,5.65
2018-04-24T03:30:07.799Z,6.10
2018-04-24T03:32:35.268Z,5.57
2018-04-24T03:35:02.730Z,5.40
2018-04-24T03:37:30.207Z,5.50
2018-04-24T03:39:57.691Z,5.32
2018-04-24T03:42:25.153Z,5.70
2018-04-24T03:44:52.651Z,5.45
2018-04-24T03:47:20.134Z,6.10
2018-04-24T03:49:47.597Z,5.10
2018-04-24T03:52:15.067Z,5.35
2018-04-24T03:54:42.525Z,4.50
2018-04-24T03:57:10.039Z,5.17
2018-04-24T03:59:37.461Z,5.20
2018-04-24T04:02:04.946Z,4.55
2018-04-24T04:04:32.424Z,5.20
2018-04-24T04:06:59.873Z,5.20
2018-04-24T04:09:27.345Z,4.90
2018-04-24T04:11:54.810Z,5.28
2018-04-24T04:14:22.285Z,4.90
2018-04-24T04:16:50.544Z,4.70
2018-04-24T04:19:29.937Z,5.30
2018-04-24T04:22:10.203Z,5.20
2018-04-24T04:24:54.506Z,5.28
2018-04-24T04:27:21.981Z,5.60
2018-04-24T04:29:49.438Z,5.20
2018-04-24T04:32:17.661Z,5.62
2018-04-24T04:34:45.160Z,5.20
2018-04-24T04:37:12.626Z,5.95
2018-04-24T04:39:40.085Z,5.25
2018-04-24T04:42:07.551Z,5.68
2018-04-24T04:44:35.049Z,5.70
2018-04-24T04:47:02.513Z,5.20
2018-04-24T04:49:29.975Z,6.15
2018-04-24T04:51:57.460Z,5.30
2018-04-24T04:54:24.936Z,5.53
2018-04-24T04:56:53.158Z,4.97
2018-04-24T04:59:20.621Z,4.90
2018-04-24T05:01:48.093Z,5.62
2018-04-24T05:04:15.568Z,5.30
2018-04-24T05:06:43.038Z,5.53
2018-04-24T05:09:10.507Z,5.00
2018-04-24T05:11:38.002Z,5.10
2018-04-24T05:14:05.479Z,6.03
2018-04-24T05:16:32.960Z,5.57
2018-04-24T05:19:00.435Z,5.57
2018-04-24T05:21:28.691Z,5.45
2018-04-24T05:23:56.167Z,5.55
2018-04-24T05:26:23.619Z,5.62
2018-04-24T05:28:51.098Z,5.68
2018-04-24T05:31:18.554Z,5.50
2018-04-24T05:33:46.034Z,5.50
2018-04-24T05:36:13.497Z,5.15
2018-04-24T05:38:40.971Z,5.15
2018-04-24T05:41:08.483Z,5.18
2018-04-24T05:43:35.951Z,5.93
2018-04-24T05:46:03.416Z,5.00
2018-04-24T05:48:30.873Z,5.50
2018-04-24T05:50:58.343Z,5.35
2018-04-24T05:53:25.809Z,5.22
2018-04-24T05:55:53.262Z,5.75
2018-04-24T05:58:20.725Z,5.60
2018-04-24T06:00:48.213Z,5.85
2018-04-24T06:03:15.698Z,5.50
2018-04-24T06:05:43.157Z,5.70
2018-04-24T06:08:10.619Z,5.07
2018-04-24T06:10:38.093Z,5.18
2018-04-24T06:13:05.559Z,5.15
2018-04-24T06:15:33.028Z,4.90
2018-04-24T06:18:00.509Z,5.53
2018-04-24T06:20:27.991Z,5.40
2018-04-24T06:22:55.450Z,5.30
2018-04-24T06:25:22.925Z,5.90
2018-04-24T06:27:51.172Z,5.60
2018-04-24T06:30:18.649Z,5.20
2018-04-24T06:32:46.132Z,5.32
2018-04-24T06:35:13.600Z,5.90
2018-04-24T06:37:41.080Z,5.60
2018-04-24T06:40:08.581Z,5.25
2018-04-24T06:42:36.827Z,6.00
2018-04-24T06:45:04.338Z,5.60
2018-04-24T06:47:31.805Z,5.90
2018-04-24T06:49:59.270Z,6.00
2018-04-24T06:52:26.749Z,5.87
2018-04-24T06:54:54.261Z,5.50
2018-04-24T06:57:22.465Z,5.80
2018-04-24T06:59:50.174Z,5.95
2018-04-24T07:02:17.629Z,6.60
2018-04-24T07:04:45.098Z,6.50
2018-04-24T07:07:12.593Z,6.30
2018-04-24T07:09:40.059Z,5.72
2018-04-24T07:12:07.534Z,5.87
2018-04-24T07:14:35.014Z,7.05
2018-04-24T07:17:03.270Z,6.90
2018-04-24T07:19:30.729Z,6.82
2018-04-24T07:21:58.192Z,6.78
2018-04-24T07:24:25.678Z,6.80
2018-04-24T07:26:53.154Z,6.70
2018-04-24T07:29:20.820Z,6.50
2018-04-24T07:31:48.285Z,6.25
2018-04-24T07:34:15.773Z,6.70
2018-04-24T07:36:43.254Z,6.60
2018-04-24T07:39:10.734Z,6.55
2018-04-24T07:41:38.963Z,6.62
2018-04-24T07:44:06.452Z,5.85
2018-04-24T07:46:33.998Z,6.35
2018-04-24T07:49:02.178Z,6.10
2018-04-24T07:51:29.672Z,6.78
2018-04-24T07:53:57.139Z,7.32
2018-04-24T07:56:24.701Z,6.50
2018-04-24T07:58:52.177Z,7.12
2018-04-24T08:01:19.641Z,6.78
2018-04-24T08:03:47.119Z,6.80
2018-04-24T08:06:14.585Z,7.00
2018-04-24T08:08:42.066Z,7.53
2018-04-24T08:11:09.553Z,7.07
2018-04-24T08:13:37.016Z,7.70
2018-04-24T08:16:04.504Z,7.37
2018-04-24T08:18:32.008Z,6.87
2018-04-24T08:20:59.472Z,8.20
2018-04-24T08:23:26.925Z,8.05
2018-04-24T08:25:55.159Z,7.75
2018-04-24T08:28:22.646Z,8.32
2018-04-24T08:30:50.106Z,9.37
2018-04-24T08:33:17.570Z,8.40
2018-04-24T08:35:45.050Z,10.13
2018-04-24T08:38:12.499Z,9.60
2018-04-24T08:40:39.979Z,10.00
2018-04-24T08:43:07.453Z,10.50
2018-04-24T08:45:34.936Z,10.83
2018-04-24T08:48:02.416Z,11.27
2018-04-24T08:50:29.868Z,11.40
2018-04-24T08:52:57.375Z,10.80
2018-04-24T08:55:24.846Z,13.62
2018-04-24T08:57:53.084Z,12.10
2018-04-24T09:00:20.559Z,11.27
2018-04-24T09:02:48.026Z,12.35
2018-04-24T09:05:15.500Z,11.20
2018-04-24T09:07:43.034Z,16.40
2018-04-24T09:10:11.265Z,15.80
2018-04-24T09:12:38.746Z,14.75
2018-04-24T09:15:06.232Z,14.25
2018-04-24T09:17:33.725Z,12.75
2018-04-24T09:20:01.972Z,12.52
2018-04-24T09:22:29.435Z,11.90
2018-04-24T09:24:57.681Z,12.68
2018-04-24T09:27:25.171Z,12.30
2018-04-24T09:29:58.559Z,12.70
2018-04-24T09:32:25.960Z,12.55
2018-04-24T09:34:53.461Z,14.38
2018-04-24T09:37:20.941Z,12.85
2018-04-24T09:39:49.163Z,13.20
2018-04-24T09:42:16.640Z,14.40
2018-04-24T09:44:44.141Z,14.40
2018-04-24T09:47:11.593Z,13.62
2018-04-24T09:49:39.969Z,13.05
2018-04-24T09:52:07.449Z,12.00
2018-04-24T09:54:34.924Z,13.30
2018-04-24T09:57:02.400Z,13.02
2018-04-24T09:59:29.885Z,13.70
2018-04-24T10:01:57.381Z,13.35
2018-04-24T10:04:25.629Z,15.40
2018-04-24T10:06:53.866Z,14.68
2018-04-24T10:09:22.094Z,17.37
2018-04-24T10:11:49.585Z,17.50
2018-04-24T10:14:17.084Z,18.30
2018-04-24T10:16:45.321Z,18.80
2018-04-24T10:19:12.799Z,19.15
2018-04-24T10:21:40.276Z,18.48
2018-04-24T10:24:07.761Z,22.62
2018-04-24T10:26:35.251Z,24.02
2018-04-24T10:29:03.468Z,24.50
2018-04-24T10:31:30.941Z,26.05
2018-04-24T10:33:58.400Z,26.40
2018-04-24T10:36:25.896Z,27.45
2018-04-24T10:38:53.351Z,28.23
2018-04-24T10:41:20.833Z,27.67
2018-04-24T10:43:48.306Z,29.27
2018-04-24T10:46:15.788Z,30.95
2018-04-24T10:48:43.298Z,30.77
2018-04-24T10:51:11.534Z,28.45
2018-04-24T10:53:39.908Z,30.42
2018-04-24T10:58:58.677Z,31.80
2018-04-24T11:01:26.916Z,30.08
2018-04-24T11:03:54.405Z,30.40
2018-04-24T11:06:21.890Z,30.37
2018-04-24T11:08:49.370Z,29.93
2018-04-24T11:11:17.617Z,28.05
2018-04-24T11:13:45.100Z,28.90
2018-04-24T11:16:12.702Z,30.12
2018-04-24T11:18:40.925Z,31.70
2018-04-24T11:21:08.444Z,32.72
2018-04-24T11:23:35.910Z,33.58
2018-04-24T11:26:03.383Z,32.25
2018-04-24T11:28:30.870Z,33.83
2018-04-24T11:30:59.114Z,31.50
2018-04-24T11:33:26.595Z,30.17
2018-04-24T11:35:54.112Z,30.02
2018-04-24T11:38:21.552Z,31.20
2018-04-24T11:40:49.019Z,28.33
2018-04-24T11:43:16.506Z,31.75
2018-04-24T11:45:44.753Z,33.28
2018-04-24T11:48:12.236Z,33.08
2018-04-24T11:50:39.727Z,31.65
2018-04-24T11:53:07.201Z,33.00
2018-04-24T11:55:35.436Z,32.17
2018-04-24T11:58:02.902Z,34.78
2018-04-24T12:00:30.370Z,35.03
2018-04-24T12:02:57.845Z,36.88
2018-04-24T12:05:25.327Z,36.03
2018-04-24T12:07:52.788Z,36.10
2018-04-24T12:10:20.263Z,37.97
2018-04-24T12:12:48.490Z,38.85
2018-04-24T12:15:16.732Z,36.38
2018-04-24T12:17:44.213Z,34.58
2018-04-24T12:20:11.706Z,31.95
2018-04-24T12:22:39.167Z,28.63
2018-04-24T12:25:06.626Z,26.42
2018-04-24T12:27:34.118Z,30.15
2018-04-24T12:30:01.605Z,31.65
2018-04-24T12:32:29.881Z,30.43
2018-04-24T12:34:57.343Z,27.50
2018-04-24T12:37:24.829Z,24.85
2018-04-24T12:39:53.076Z,23.70
2018-04-24T12:42:21.314Z,24.52
2018-04-24T12:44:49.564Z,23.25
2018-04-24T12:47:17.039Z,22.37
2018-04-24T12:49:44.502Z,21.73
2018-04-24T12:52:12.001Z,21.27
2018-04-24T12:54:40.417Z,20.70
2018-04-24T12:57:07.901Z,19.67
2018-04-24T12:59:35.388Z,21.23
2018-04-24T13:02:02.853Z,20.75
2018-04-24T13:04:30.315Z,20.50
2018-04-24T13:06:57.798Z,19.87
2018-04-24T13:09:26.047Z,19.42
2018-04-24T13:11:53.616Z,19.30
2018-04-24T13:14:21.093Z,17.10
2018-04-24T13:16:48.563Z,14.50
2018-04-24T13:19:16.026Z,14.63
2018-04-24T13:21:43.504Z,14.20
2018-04-24T13:24:10.982Z,13.60
2018-04-24T13:26:38.458Z,13.02
2018-04-24T13:29:05.931Z,12.93
2018-04-24T13:31:33.399Z,12.90
2018-04-24T13:34:00.890Z,11.65
2018-04-24T13:36:28.370Z,12.50
2018-04-24T13:38:55.858Z,12.55
2018-04-24T13:41:23.347Z,12.53
2018-04-24T13:43:51.609Z,12.50
2018-04-24T13:46:19.078Z,11.75
2018-04-24T13:48:46.584Z,12.70
2018-04-24T13:51:14.079Z,11.77
2018-04-24T13:53:41.563Z,12.82
2018-04-24T13:56:09.046Z,12.23
2018-04-24T13:58:36.539Z,13.00
2018-04-24T14:01:04.792Z,13.00
2018-04-24T14:03:32.293Z,12.80
2018-04-24T14:05:59.792Z,13.57
2018-04-24T14:08:27.261Z,12.80
2018-04-24T14:10:54.735Z,13.00
2018-04-24T14:13:22.220Z,13.60
2018-04-24T14:15:49.692Z,14.32
2018-04-24T14:18:17.166Z,14.02
2018-04-24T14:20:44.665Z,14.50
2018-04-24T14:23:12.127Z,13.77
2018-04-24T14:25:39.598Z,13.93
2018-04-24T14:28:07.086Z,14.00
2018-04-24T14:30:34.566Z,14.55
2018-04-24T14:33:02.028Z,14.50
2018-04-24T14:35:29.504Z,14.80
2018-04-24T14:37:56.972Z,13.90
2018-04-24T14:40:24.456Z,13.35
2018-04-24T14:42:52.711Z,14.80
2018-04-24T14:45:20.171Z,15.30
2018-04-24T14:47:47.643Z,17.00
2018-04-24T14:50:15.129Z,16.00
2018-04-24T14:52:42.618Z,20.77
2018-04-24T14:55:10.846Z,15.20
2018-04-24T14:57:38.319Z,17.05
2018-04-24T15:00:05.782Z,14.57
2018-04-24T15:02:33.277Z,15.30
2018-04-24T15:05:00.781Z,17.85
2018-04-24T15:07:29.008Z,21.52
2018-04-24T15:09:56.478Z,20.58
2018-04-24T15:12:23.957Z,16.30
2018-04-24T15:14:51.434Z,16.35
2018-04-24T15:17:18.925Z,15.93
2018-04-24T15:19:46.441Z,16.10
2018-04-24T15:22:13.914Z,16.65
2018-04-24T15:24:41.407Z,15.30
2018-04-24T15:27:08.865Z,15.85
2018-04-24T15:29:36.346Z,15.80
2018-04-24T15:32:03.926Z,16.02
2018-04-24T15:34:31.406Z,17.77
2018-04-24T15:36:58.892Z,17.33
2018-04-24T15:39:26.390Z,15.70
2018-04-24T15:41:53.884Z,15.77
2018-04-24T15:44:21.340Z,15.63
2018-04-24T15:46:48.847Z,15.23
2018-04-24T15:49:16.311Z,15.77
2018-04-24T15:51:43.802Z,15.40
2018-04-24T15:54:11.290Z,15.48
2018-04-24T15:56:39.548Z,14.50
2018-04-24T15:59:07.023Z,15.80
2018-04-24T16:01:34.494Z,14.80
2018-04-24T16:04:02.234Z,14.65
2018-04-24T16:06:30.007Z,15.00
2018-04-24T16:08:57.780Z,14.90
2018-04-24T16:11:25.388Z,14.95
2018-04-24T16:13:52.854Z,15.30
2018-04-24T16:16:20.331Z,14.80
2018-04-24T16:18:47.904Z,14.93
2018-04-24T16:21:16.919Z,15.70
2018-04-24T16:23:45.154Z,15.33
2018-04-24T16:26:12.815Z,14.13
2018-04-24T16:28:40.351Z,15.88
2018-04-24T16:31:07.820Z,15.00
2018-04-24T16:33:35.297Z,16.75
2018-04-24T16:36:03.534Z,15.75
2018-04-24T16:38:31.003Z,18.65
2018-04-24T16:40:58.864Z,18.08
2018-04-24T16:43:26.398Z,15.25
2018-04-24T16:45:53.964Z,15.35
2018-04-24T16:48:22.210Z,18.50
2018-04-24T16:50:49.730Z,16.58
2018-04-24T16:53:17.294Z,16.33
2018-04-24T16:55:44.786Z,16.73
2018-04-24T16:58:13.023Z,16.33
2018-04-24T17:00:40.600Z,16.23
2018-04-24T17:03:08.062Z,16.60
2018-04-24T17:05:35.560Z,15.82
2018-04-24T17:08:03.053Z,16.27
2018-04-24T17:10:31.298Z,15.45
2018-04-24T17:12:58.794Z,15.40
2018-04-24T17:15:26.269Z,16.37
2018-04-24T17:17:53.751Z,15.77
2018-04-24T17:20:21.261Z,16.00
2018-04-24T17:22:48.741Z,16.02
2018-04-24T17:25:16.223Z,16.50
2018-04-24T17:27:43.699Z,15.80
2018-04-24T17:30:11.189Z,16.33
2018-04-24T17:32:38.676Z,16.00
2018-04-24T17:35:06.938Z,16.75
2018-04-24T17:37:34.414Z,17.20
2018-04-24T17:40:01.913Z,16.33
2018-04-24T17:42:29.397Z,17.10
2018-04-24T17:44:56.915Z,16.85
2018-04-24T17:47:24.388Z,17.50
2018-04-24T17:49:51.901Z,17.60
2018-04-24T17:52:20.137Z,17.60
2018-04-24T17:54:47.633Z,17.23
2018-04-24T17:57:15.143Z,16.70
2018-04-24T17:59:43.358Z,16.67
2018-04-24T18:02:10.850Z,17.15
2018-04-24T18:04:38.379Z,18.05
2018-04-24T18:07:05.882Z,17.87
2018-04-24T18:09:33.342Z,17.60
2018-04-24T18:12:00.817Z,18.12
2018-04-24T18:14:28.303Z,16.50
2018-04-24T18:16:55.766Z,18.12
2018-04-24T18:19:23.262Z,18.17
2018-04-24T18:21:51.604Z,18.52
2018-04-24T18:24:19.133Z,17.92
2018-04-24T18:26:46.613Z,16.70
2018-04-24T18:32:04.594Z,17.48
2018-04-24T18:34:32.361Z,17.25
2018-04-24T18:36:59.880Z,23.20
2018-04-24T18:39:27.714Z,21.73
2018-04-24T18:41:55.219Z,20.65
2018-04-24T18:44:22.686Z,18.90
2018-04-24T18:46:50.173Z,18.73
2018-04-24T18:49:19.021Z,18.62
2018-04-24T18:51:46.492Z,18.45
2018-04-24T18:54:13.969Z,18.58
2018-04-24T18:56:41.467Z,18.58
2018-04-24T18:59:08.959Z,20.40
2018-04-24T19:01:36.424Z,21.45
2018-04-24T19:04:03.899Z,23.08
2018-04-24T19:06:31.384Z,21.90
2018-04-24T19:08:59.889Z,20.45
2018-04-24T19:11:27.737Z,21.23
2018-04-24T19:13:55.270Z,20.90
2018-04-24T19:16:22.822Z,22.00
2018-04-24T19:18:56.229Z,21.58
2018-04-24T19:21:23.747Z,22.08
2018-04-24T19:23:51.218Z,20.60
2018-04-24T19:26:18.718Z,21.87
2018-04-24T19:28:46.947Z,21.83
2018-04-24T19:31:20.293Z,23.30
2018-04-24T19:33:49.224Z,23.08
2018-04-24T19:36:16.777Z,23.90
2018-04-24T19:41:57.866Z,24.50
2018-04-24T19:44:25.358Z,23.92
2018-04-24T19:46:52.853Z,24.55
2018-04-24T19:49:26.227Z,23.73
2018-04-24T19:51:53.549Z,24.65
2018-04-24T19:54:21.038Z,24.50
2018-04-24T19:56:48.512Z,24.35
2018-04-24T19:59:15.971Z,25.55
2018-04-24T20:01:43.601Z,24.95
2018-04-24T20:04:11.154Z,25.52
2018-04-24T20:06:38.669Z,25.88
2018-04-24T20:09:06.918Z,25.70
2018-04-24T20:11:34.392Z,25.80
2018-04-24T20:14:01.971Z,26.50
2018-04-24T20:16:29.782Z,26.05
2018-04-24T20:18:58.688Z,25.20
2018-04-24T20:21:26.204Z,26.05
2018-04-24T20:23:53.702Z,25.75
2018-04-24T20:26:21.261Z,26.35
2018-04-24T20:28:50.299Z,25.62
2018-04-24T20:31:18.526Z,25.30
2018-04-24T20:33:46.883Z,26.12
2018-04-24T20:36:14.402Z,26.00
2018-04-24T20:38:41.929Z,26.42
2018-04-24T20:41:09.380Z,26.45
2018-04-24T20:43:37.747Z,23.85
2018-04-24T20:46:05.209Z,24.27
2018-04-24T20:48:32.666Z,23.70
2018-04-24T20:51:00.146Z,24.40
2018-04-24T20:53:27.774Z,24.10
2018-04-24T20:55:55.205Z,23.40
2018-04-24T20:58:23.700Z,23.60
2018-04-24T21:00:51.296Z,24.07
2018-04-24T21:03:18.736Z,23.50
2018-04-24T21:05:46.195Z,24.02
2018-04-24T21:08:13.688Z,24.15
2018-04-24T21:10:41.914Z,24.52
2018-04-24T21:13:09.388Z,25.70
2018-04-24T21:15:36.885Z,24.60
2018-04-24T21:18:04.362Z,24.17
2018-04-24T21:20:31.827Z,24.17
2018-04-24T21:22:59.308Z,25.10
2018-04-24T21:25:26.799Z,24.45
2018-04-24T21:27:55.048Z,24.12
2018-04-24T21:30:22.532Z,23.40
2018-04-24T21:32:50.001Z,24.30
2018-04-24T21:35:17.500Z,23.85
2018-04-24T21:37:45.726Z,23.15
2018-04-24T21:40:13.207Z,23.40
2018-04-24T21:42:40.671Z,23.10
2018-04-24T21:45:08.133Z,23.27
2018-04-24T21:47:35.605Z,22.85
2018-04-24T21:50:03.086Z,22.70
2018-04-24T21:52:30.585Z,22.30
2018-04-24T21:54:58.070Z,22.80
2018-04-24T21:57:26.307Z,21.95
2018-04-24T21:59:53.785Z,21.08
2018-04-24T22:02:21.242Z,21.40
2018-04-24T22:04:48.733Z,21.37
2018-04-24T22:07:16.207Z,20.98
2018-04-24T22:09:43.721Z,21.62
2018-04-24T22:12:11.272Z,20.65
2018-04-24T22:14:38.826Z,20.60
2018-04-24T22:17:06.318Z,20.33
2018-04-24T22:19:33.874Z,19.70
2018-04-24T22:22:02.869Z,20.15
2018-04-24T22:24:30.335Z,20.43
2018-04-24T22:26:57.906Z,20.25
2018-04-24T22:29:25.385Z,20.58
2018-04-24T22:31:52.942Z,20.55
2018-04-24T22:34:20.429Z,19.33
2018-04-24T22:36:47.935Z,20.33
2018-04-24T22:39:15.478Z,20.87
2018-04-24T22:41:42.951Z,20.20
2018-04-24T22:44:10.420Z,19.80
2018-04-24T22:46:37.976Z,21.50
2018-04-24T22:49:05.461Z,20.33
2018-04-24T22:51:33.038Z,21.15
2018-04-24T22:54:01.283Z,20.15
2018-04-24T22:56:28.757Z,20.10
2018-04-24T22:58:56.257Z,19.73
2018-04-24T23:01:23.849Z,18.70
2018-04-24T23:03:52.102Z,20.50
2018-04-24T23:06:19.609Z,19.30
2018-04-24T23:08:47.087Z,19.87
2018-04-24T23:11:26.490Z,19.95
2018-04-24T23:14:05.942Z,19.87
2018-04-24T23:16:45.314Z,19.70
2018-04-24T23:19:25.663Z,19.92
2018-04-24T23:21:52.661Z,20.27
2018-04-24T23:24:20.900Z,19.62
2018-04-24T23:26:48.385Z,20.33
2018-04-24T23:29:15.864Z,20.80
2018-04-24T23:31:43.334Z,19.95
2018-04-24T23:34:10.806Z,19.92
2018-04-24T23:36:38.269Z,19.60
2018-04-24T23:39:05.742Z,20.63
2018-04-24T23:41:34.738Z,19.52
2018-04-24T23:44:02.199Z,20.65
2018-04-24T23:46:29.770Z,20.50
2018-04-24T23:48:57.242Z,19.05
2018-04-24T23:51:24.718Z,20.48
2018-04-24T23:53:52.230Z,20.58
2018-04-24T23:56:19.690Z,19.60
2018-04-24T23:58:47.935Z,21.50
